createdAt,value
2022-11-21T00:00:35.343Z,25.37
2022-11-21T00:04:11.192Z,27.13
2022-11-21T00:07:59.814Z,26.87
2022-11-21T00:11:47.487Z,25.77
2022-11-21T00:15:23.428Z,25.73
2022-11-21T00:19:04.309Z,25.90
2022-11-21T00:23:04.051Z,24.60
2022-11-21T00:30:31.134Z,22.80
2022-11-21T00:37:53.409Z,22.03
2022-11-21T00:45:41.685Z,25.57
2022-11-21T00:49:27.282Z,25.43
2022-11-21T00:53:08.474Z,25.77
2022-11-21T00:56:45.403Z,22.93
2022-11-21T01:00:43.386Z,22.93
2022-11-21T01:04:41.409Z,24.67
2022-11-21T01:08:34.000Z,27.63
2022-11-21T01:16:25.217Z,24.70
2022-11-21T01:20:17.456Z,24.80
2022-11-21T01:23:52.091Z,25.87
2022-11-21T01:27:37.153Z,22.70
2022-11-21T01:31:49.596Z,24.63
2022-11-21T01:35:19.821Z,24.40
2022-11-21T01:39:18.616Z,25.87
2022-11-21T01:43:01.235Z,25.20
2022-11-21T01:46:47.557Z,24.33
2022-11-21T01:50:30.963Z,25.10
2022-11-21T01:54:06.848Z,25.13
2022-11-21T01:57:59.490Z,22.63
2022-11-21T02:01:44.677Z,22.87
2022-11-21T02:05:06.528Z,24.23
2022-11-21T02:13:17.215Z,28.63
2022-11-21T02:17:06.082Z,25.60
2022-11-21T02:20:41.635Z,25.73
2022-11-21T02:24:45.046Z,25.87
2022-11-21T02:28:42.804Z,22.87
2022-11-21T02:32:22.060Z,26.90
2022-11-21T02:36:02.328Z,23.37
2022-11-21T02:44:59.827Z,23.23
2022-11-21T02:48:50.839Z,22.90
2022-11-21T02:52:45.933Z,21.37
2022-11-21T02:56:22.637Z,24.50
2022-11-21T03:00:03.208Z,21.23
2022-11-21T03:04:30.525Z,21.53
2022-11-21T03:08:22.619Z,22.70
2022-11-21T03:11:58.992Z,22.50
2022-11-21T03:16:19.349Z,21.83
2022-11-21T03:20:14.527Z,22.00
2022-11-21T03:24:07.678Z,23.40
2022-11-21T03:27:36.181Z,24.43
2022-11-21T03:31:34.149Z,20.97
2022-11-21T03:35:20.250Z,24.00
2022-11-21T03:38:57.135Z,17.57
2022-11-21T03:46:54.691Z,22.67
2022-11-21T03:50:41.261Z,22.17
2022-11-21T03:54:28.468Z,17.93
2022-11-21T03:58:00.987Z,23.17
2022-11-21T04:01:59.400Z,19.03
2022-11-21T04:05:53.846Z,16.87
2022-11-21T04:13:10.013Z,17.03
2022-11-21T04:16:49.210Z,17.93
2022-11-21T04:20:55.988Z,17.63
2022-11-21T04:24:39.026Z,17.97
2022-11-21T04:29:29.228Z,21.50
2022-11-21T04:33:39.945Z,16.47
2022-11-21T04:37:31.432Z,17.30
2022-11-21T04:41:38.224Z,18.37
2022-11-21T04:45:35.998Z,17.67
2022-11-21T04:49:13.805Z,18.40
2022-11-21T04:53:45.784Z,18.87
2022-11-21T04:57:37.022Z,19.63
2022-11-21T05:01:29.800Z,19.53
2022-11-21T05:05:33.990Z,16.63
2022-11-21T05:09:30.385Z,21.97
2022-11-21T05:13:27.900Z,19.67
2022-11-21T05:17:40.766Z,21.57
2022-11-21T05:29:26.660Z,19.67
2022-11-21T05:33:13.474Z,19.30
2022-11-21T05:37:02.673Z,20.30
2022-11-21T05:40:26.862Z,24.13
2022-11-21T05:44:00.368Z,22.07
2022-11-21T05:47:29.871Z,22.27
2022-11-21T05:51:14.963Z,21.93
2022-11-21T05:54:36.255Z,36.30
2022-11-21T05:58:03.441Z,23.67
2022-11-21T06:02:00.395Z,18.90
2022-11-21T06:05:26.404Z,43.17
2022-11-21T06:08:49.822Z,37.53
2022-11-21T06:12:44.402Z,32.13
2022-11-21T06:16:10.398Z,25.90
2022-11-21T06:19:33.484Z,23.30
2022-11-21T06:23:15.744Z,23.40
2022-11-21T06:26:49.067Z,18.83
2022-11-21T06:29:54.938Z,24.60
2022-11-21T06:32:58.664Z,22.23
2022-11-21T06:36:04.454Z,26.17
2022-11-21T06:39:08.074Z,27.00
2022-11-21T06:42:11.650Z,32.03
2022-11-21T06:45:33.076Z,26.80
2022-11-21T06:48:38.463Z,29.77
2022-11-21T06:51:42.097Z,31.70
2022-11-21T06:54:45.718Z,33.97
2022-11-21T06:57:49.285Z,28.70
2022-11-21T07:00:54.837Z,28.60
2022-11-21T07:03:58.606Z,23.57
2022-11-21T07:07:02.591Z,24.57
2022-11-21T07:10:07.266Z,24.63
2022-11-21T07:13:25.118Z,25.43
2022-11-21T07:16:32.400Z,27.10
2022-11-21T07:19:40.636Z,25.80
2022-11-21T07:22:44.676Z,29.03
2022-11-21T07:25:49.569Z,27.10
2022-11-21T07:28:53.230Z,29.80
2022-11-21T07:31:58.434Z,28.07
2022-11-21T07:35:02.559Z,27.43
2022-11-21T07:38:06.473Z,28.77
2022-11-21T07:41:10.081Z,30.47
2022-11-21T07:44:13.723Z,22.70
2022-11-21T07:47:18.699Z,26.30
2022-11-21T07:50:22.282Z,33.23
2022-11-21T07:53:25.834Z,29.63
2022-11-21T07:56:29.457Z,29.73
2022-11-21T07:59:32.995Z,32.13
2022-11-21T08:02:38.036Z,29.77
2022-11-21T08:05:44.392Z,30.27
2022-11-21T08:08:51.793Z,29.97
2022-11-21T08:11:55.894Z,27.60
2022-11-21T08:14:59.529Z,29.20
2022-11-21T08:18:10.841Z,30.57
2022-11-21T08:21:19.508Z,30.73
2022-11-21T08:24:23.715Z,28.57
2022-11-21T08:27:27.383Z,26.87
2022-11-21T08:30:31.886Z,28.77
2022-11-21T08:33:36.914Z,31.37
2022-11-21T08:36:40.696Z,26.83
2022-11-21T08:39:44.318Z,29.17
2022-11-21T08:42:47.887Z,29.67
2022-11-21T08:45:51.955Z,30.77
2022-11-21T08:48:57.142Z,29.07
2022-11-21T08:52:00.710Z,31.50
2022-11-21T08:55:04.372Z,30.23
2022-11-21T08:58:07.957Z,29.40
2022-11-21T09:01:11.645Z,34.50
2022-11-21T09:04:16.660Z,31.97
2022-11-21T09:07:20.378Z,33.00
2022-11-21T09:10:23.977Z,32.57
2022-11-21T09:13:27.638Z,28.37
2022-11-21T09:16:48.855Z,31.73
2022-11-21T09:19:53.844Z,31.93
2022-11-21T09:22:57.634Z,32.67
2022-11-21T09:26:01.925Z,34.10
2022-11-21T09:29:06.011Z,31.03
2022-11-21T09:32:09.624Z,35.83
2022-11-21T09:35:14.683Z,34.13
2022-11-21T09:38:23.636Z,29.77
2022-11-21T09:41:53.992Z,30.97
2022-11-21T09:45:11.951Z,30.83
2022-11-21T09:48:24.983Z,28.73
2022-11-21T09:51:32.624Z,32.80
2022-11-21T09:54:45.078Z,34.87
2022-11-21T09:57:51.203Z,25.43
2022-11-21T10:00:55.697Z,30.67
2022-11-21T10:04:03.046Z,27.93
2022-11-21T10:07:15.260Z,28.60
2022-11-21T10:10:43.578Z,29.77
2022-11-21T10:14:07.595Z,28.73
2022-11-21T10:17:26.157Z,24.67
2022-11-21T10:20:50.034Z,26.43
2022-11-21T10:24:20.296Z,27.43
2022-11-21T10:27:36.387Z,24.47
2022-11-21T10:30:45.486Z,26.27
2022-11-21T10:33:52.835Z,24.67
2022-11-21T10:37:09.012Z,24.00
2022-11-21T10:40:35.078Z,25.93
2022-11-21T10:44:06.779Z,25.67
2022-11-21T10:47:27.366Z,26.10
2022-11-21T10:50:46.130Z,28.90
2022-11-21T10:54:22.316Z,29.13
2022-11-21T10:57:30.032Z,27.93
2022-11-21T11:00:34.978Z,25.50
2022-11-21T11:03:38.727Z,25.33
2022-11-21T11:06:46.394Z,23.77
2022-11-21T11:09:51.130Z,26.67
2022-11-21T11:13:44.736Z,24.10
2022-11-21T11:16:45.121Z,25.60
2022-11-21T11:20:05.462Z,24.80
2022-11-21T11:23:26.085Z,28.87
2022-11-21T11:26:31.990Z,28.37
2022-11-21T11:29:53.190Z,23.33
2022-11-21T11:32:57.228Z,27.77
2022-11-21T11:36:15.782Z,28.87
2022-11-21T11:39:28.879Z,25.37
2022-11-21T11:43:18.906Z,24.97
2022-11-21T11:47:01.504Z,25.57
2022-11-21T11:50:12.868Z,25.43
2022-11-21T11:53:22.348Z,23.93
2022-11-21T11:56:29.917Z,27.70
2022-11-21T11:59:41.167Z,25.13
2022-11-21T12:02:58.873Z,28.17
2022-11-21T12:06:09.682Z,24.37
2022-11-21T12:09:24.729Z,24.10
2022-11-21T12:12:40.770Z,23.37
2022-11-21T12:15:52.922Z,28.30
2022-11-21T12:19:10.183Z,23.07
2022-11-21T12:22:13.821Z,24.03
2022-11-21T12:25:19.949Z,21.83
2022-11-21T12:28:36.039Z,24.53
2022-11-21T12:31:59.582Z,21.33
2022-11-21T12:35:30.093Z,21.93
2022-11-21T12:39:09.574Z,17.70
2022-11-21T12:42:45.068Z,20.03
2022-11-21T12:45:58.727Z,20.63
2022-11-21T12:49:32.712Z,23.10
2022-11-21T12:53:05.184Z,19.10
2022-11-21T12:56:26.138Z,23.57
2022-11-21T12:59:39.069Z,27.57
2022-11-21T13:03:15.841Z,27.77
2022-11-21T13:06:27.261Z,18.40
2022-11-21T13:09:41.282Z,21.30
2022-11-21T13:12:53.102Z,30.83
2022-11-21T13:16:03.849Z,28.43
2022-11-21T13:19:26.395Z,24.23
2022-11-21T13:22:54.665Z,34.63
2022-11-21T13:26:00.290Z,29.07
2022-11-21T13:29:11.090Z,18.60
2022-11-21T13:32:39.665Z,23.03
2022-11-21T13:36:09.154Z,26.57
2022-11-21T13:39:38.725Z,22.17
2022-11-21T13:43:35.071Z,22.80
2022-11-21T13:47:03.311Z,21.67
2022-11-21T13:50:22.031Z,30.10
2022-11-21T13:54:06.287Z,23.27
2022-11-21T13:57:49.810Z,25.00
2022-11-21T14:01:36.162Z,32.53
2022-11-21T14:05:25.075Z,39.30
2022-11-21T14:08:30.988Z,25.10
2022-11-21T14:11:48.221Z,20.20
2022-11-21T14:15:09.432Z,21.67
2022-11-21T14:18:23.945Z,19.33
2022-11-21T14:21:31.414Z,22.70
2022-11-21T14:24:35.382Z,21.93
2022-11-21T14:27:45.525Z,18.90
2022-11-21T14:30:49.329Z,20.67
2022-11-21T14:33:58.743Z,24.30
2022-11-21T14:37:07.341Z,23.63
2022-11-21T14:40:15.782Z,19.53
2022-11-21T14:43:34.374Z,22.13
2022-11-21T14:46:40.817Z,21.60
2022-11-21T14:49:52.810Z,20.03
2022-11-21T14:53:00.799Z,22.97
2022-11-21T14:56:04.813Z,20.77
2022-11-21T14:59:23.408Z,21.77
2022-11-21T15:02:30.527Z,25.70
2022-11-21T15:12:39.432Z,21.93
2022-11-21T15:15:50.389Z,25.83
2022-11-21T15:18:54.144Z,29.00
2022-11-21T15:22:02.709Z,28.03
2022-11-21T15:25:18.327Z,23.37
2022-11-21T15:28:22.061Z,26.23
2022-11-21T15:31:25.743Z,26.90
2022-11-21T15:34:37.003Z,25.83
2022-11-21T15:37:51.236Z,27.97
2022-11-21T15:41:25.084Z,24.00
2022-11-21T15:44:29.038Z,24.33
2022-11-21T15:47:32.978Z,30.80
2022-11-21T15:50:38.030Z,22.77
2022-11-21T15:53:43.953Z,24.03
2022-11-21T15:56:48.090Z,28.87
2022-11-21T15:59:53.195Z,24.83
2022-11-21T16:02:56.995Z,27.23
2022-11-21T16:06:00.767Z,27.30
2022-11-21T16:09:06.486Z,25.97
2022-11-21T16:12:10.869Z,28.17
2022-11-21T16:15:14.498Z,25.80
2022-11-21T16:18:18.143Z,27.23
2022-11-21T16:21:21.763Z,28.17
2022-11-21T16:24:26.782Z,26.30
2022-11-21T16:27:30.413Z,28.23
2022-11-21T16:30:34.078Z,31.70
2022-11-21T16:33:41.254Z,30.23
2022-11-21T16:36:44.904Z,31.57
2022-11-21T16:39:52.200Z,28.87
2022-11-21T16:43:10.927Z,32.37
2022-11-21T16:46:14.552Z,36.30
2022-11-21T16:49:18.775Z,29.27
2022-11-21T16:52:22.451Z,31.07
2022-11-21T16:55:27.569Z,35.93
2022-11-21T16:58:31.177Z,34.67
2022-11-21T17:01:34.915Z,47.80
2022-11-21T17:04:38.797Z,42.57
2022-11-21T17:07:42.525Z,35.07
2022-11-21T17:10:47.619Z,31.03
2022-11-21T17:13:52.915Z,29.97
2022-11-21T17:16:56.439Z,31.37
2022-11-21T17:20:00.120Z,30.23
2022-11-21T17:23:03.912Z,31.50
2022-11-21T17:26:11.613Z,32.27
2022-11-21T17:29:15.220Z,39.37
2022-11-21T17:32:19.262Z,38.37
2022-11-21T17:35:22.842Z,34.17
2022-11-21T17:38:26.451Z,33.13
2022-11-21T17:41:31.483Z,35.90
2022-11-21T17:44:35.257Z,34.27
2022-11-21T17:47:38.918Z,43.23
2022-11-21T17:50:42.488Z,38.70
2022-11-21T17:53:49.246Z,41.83
2022-11-21T17:56:56.999Z,35.93
2022-11-21T18:00:00.865Z,35.70
2022-11-21T18:03:04.557Z,34.10
2022-11-21T18:06:11.733Z,38.43
2022-11-21T18:09:16.637Z,42.23
2022-11-21T18:12:21.960Z,38.80
2022-11-21T18:15:30.257Z,42.13
2022-11-21T18:18:35.954Z,39.80
2022-11-21T18:21:39.638Z,38.60
2022-11-21T18:24:43.195Z,36.63
2022-11-21T18:27:54.287Z,34.67
2022-11-21T18:31:07.485Z,38.13
2022-11-21T18:34:12.105Z,35.97
2022-11-21T18:37:15.766Z,32.67
2022-11-21T18:40:19.590Z,34.03
2022-11-21T18:43:24.757Z,40.43
2022-11-21T18:46:30.417Z,38.57
2022-11-21T18:49:34.116Z,34.17
2022-11-21T18:52:43.537Z,39.80
2022-11-21T18:55:49.839Z,38.00
2022-11-21T18:58:58.898Z,34.20
2022-11-21T19:02:03.146Z,42.33
2022-11-21T19:05:08.793Z,34.07
2022-11-21T19:08:12.714Z,36.10
2022-11-21T19:11:17.523Z,44.30
2022-11-21T19:14:22.506Z,35.20
2022-11-21T19:17:26.194Z,43.67
2022-11-21T19:20:29.802Z,41.83
2022-11-21T19:23:33.763Z,37.80
2022-11-21T19:26:37.538Z,40.23
2022-11-21T19:29:42.716Z,58.33
2022-11-21T19:32:46.463Z,55.10
2022-11-21T19:35:50.010Z,38.07
2022-11-21T19:38:53.820Z,32.33
2022-11-21T19:41:57.590Z,45.60
2022-11-21T19:45:02.575Z,67.97
2022-11-21T19:48:06.874Z,65.47
2022-11-21T19:51:11.308Z,59.90
2022-11-21T19:54:16.677Z,66.20
2022-11-21T19:57:20.953Z,64.40
2022-11-21T20:00:26.434Z,39.70
2022-11-21T20:03:30.315Z,35.00
2022-11-21T20:06:36.868Z,36.63
2022-11-21T20:09:40.863Z,31.10
2022-11-21T20:12:44.698Z,36.97
2022-11-21T20:15:49.799Z,33.37
2022-11-21T20:18:55.489Z,34.50
2022-11-21T20:21:59.092Z,34.57
2022-11-21T20:25:02.712Z,34.40
2022-11-21T20:28:11.461Z,32.03
2022-11-21T20:31:20.129Z,38.30
2022-11-21T20:34:23.786Z,38.50
2022-11-21T20:37:27.836Z,36.23
2022-11-21T20:40:31.624Z,39.53
2022-11-21T20:44:10.554Z,37.83
2022-11-21T20:47:00.519Z,40.03
2022-11-21T20:50:04.479Z,38.83
2022-11-21T20:56:34.843Z,35.77
2022-11-21T20:59:38.683Z,34.87
2022-11-21T21:02:43.599Z,32.87
2022-11-21T21:05:47.252Z,32.43
2022-11-21T21:08:51.312Z,35.10
2022-11-21T21:11:54.969Z,33.97
2022-11-21T21:14:58.699Z,32.70
2022-11-21T21:18:03.742Z,31.63
2022-11-21T21:21:16.936Z,36.80
2022-11-21T21:24:21.005Z,30.60
2022-11-21T21:27:24.877Z,37.07
2022-11-21T21:30:28.687Z,30.70
2022-11-21T21:33:33.796Z,33.77
2022-11-21T21:36:37.631Z,32.87
2022-11-21T21:39:41.381Z,36.83
2022-11-21T21:42:45.147Z,33.93
2022-11-21T21:45:48.723Z,36.03
2022-11-21T21:48:57.203Z,35.80
2022-11-21T21:52:00.934Z,34.80
2022-11-21T21:55:05.218Z,39.07
2022-11-21T21:58:08.928Z,39.73
2022-11-21T22:01:16.210Z,41.70
2022-11-21T22:04:21.397Z,41.13
2022-11-21T22:07:25.000Z,40.37
2022-11-21T22:10:28.897Z,44.43
2022-11-21T22:13:33.101Z,42.57
2022-11-21T22:16:36.777Z,38.67
2022-11-21T22:19:41.690Z,36.20
2022-11-21T22:22:45.278Z,36.83
2022-11-21T22:25:49.314Z,32.70
2022-11-21T22:28:52.973Z,37.73
2022-11-21T22:31:56.702Z,29.73
2022-11-21T22:35:01.715Z,35.37
2022-11-21T22:38:05.607Z,33.93
2022-11-21T22:41:15.923Z,34.87
2022-11-21T22:44:19.604Z,33.57
2022-11-21T22:47:23.222Z,34.47
2022-11-21T22:50:28.322Z,32.57
2022-11-21T22:53:35.667Z,28.73
2022-11-21T22:56:42.230Z,28.73
2022-11-21T22:59:45.887Z,25.53
2022-11-21T23:02:49.834Z,28.13
2022-11-21T23:06:02.459Z,29.40
2022-11-21T23:09:06.106Z,26.83
2022-11-21T23:12:09.690Z,28.50
2022-11-21T23:15:13.365Z,27.37
2022-11-21T23:18:17.001Z,24.73
2022-11-21T23:21:22.298Z,24.67
2022-11-21T23:24:25.898Z,24.27
2022-11-21T23:27:29.600Z,22.63
2022-11-21T23:30:33.179Z,24.77
2022-11-21T23:33:36.951Z,22.70
2022-11-21T23:36:41.943Z,26.17
2022-11-21T23:39:45.642Z,24.97
2022-11-21T23:42:49.328Z,22.90
2022-11-21T23:45:53.866Z,22.07
2022-11-21T23:48:57.603Z,23.70
2022-11-21T23:52:02.672Z,26.10
2022-11-21T23:55:07.520Z,23.03
2022-11-21T23:58:11.263Z,23.37
